sensor_id;sensor_type;location;lat;lon;timestamp;temperature;humidity
11501;DHT22;5807;51.606;7.624;2022-10-16T00:02:11;13.10;99.90
11501;DHT22;5807;51.606;7.624;2022-10-16T00:04:38;13.80;99.90
11501;DHT22;5807;51.606;7.624;2022-10-16T00:09:34;13.20;99.90
11501;DHT22;5807;51.606;7.624;2022-10-16T00:14:29;13.10;99.90
11501;DHT22;5807;51.606;7.624;2022-10-16T00:16:56;14.10;99.90
11501;DHT22;5807;51.606;7.624;2022-10-16T00:19:23;13.10;99.90
11501;DHT22;5807;51.606;7.624;2022-10-16T00:21:50;14.00;99.90
11501;DHT22;5807;51.606;7.624;2022-10-16T00:24:18;13.10;99.90
11501;DHT22;5807;51.606;7.624;2022-10-16T00:26:45;12.90;99.90
11501;DHT22;5807;51.606;7.624;2022-10-16T00:29:12;13.00;99.90
11501;DHT22;5807;51.606;7.624;2022-10-16T00:31:38;13.10;99.90
11501;DHT22;5807;51.606;7.624;2022-10-16T00:39:00;12.70;99.90
11501;DHT22;5807;51.606;7.624;2022-10-16T00:41:29;13.10;99.90
11501;DHT22;5807;51.606;7.624;2022-10-16T00:43:57;13.10;99.90
11501;DHT22;5807;51.606;7.624;2022-10-16T00:46:27;13.10;99.90
11501;DHT22;5807;51.606;7.624;2022-10-16T00:48:59;13.20;99.90
11501;DHT22;5807;51.606;7.624;2022-10-16T00:51:31;15.90;99.90
11501;DHT22;5807;51.606;7.624;2022-10-16T00:53:59;13.10;99.90
11501;DHT22;5807;51.606;7.624;2022-10-16T00:56:28;13.20;99.90
11501;DHT22;5807;51.606;7.624;2022-10-16T00:58:55;13.30;99.90
11501;DHT22;5807;51.606;7.624;2022-10-16T01:01:22;13.20;99.90
11501;DHT22;5807;51.606;7.624;2022-10-16T01:03:49;13.20;99.90
11501;DHT22;5807;51.606;7.624;2022-10-16T01:06:23;13.10;99.90
11501;DHT22;5807;51.606;7.624;2022-10-16T01:09:02;13.10;99.90
11501;DHT22;5807;51.606;7.624;2022-10-16T01:11:35;13.00;99.90
11501;DHT22;5807;51.606;7.624;2022-10-16T01:14:08;13.10;99.90
11501;DHT22;5807;51.606;7.624;2022-10-16T01:16:41;13.10;99.90
11501;DHT22;5807;51.606;7.624;2022-10-16T01:19:15;13.20;99.90
11501;DHT22;5807;51.606;7.624;2022-10-16T01:21:46;13.20;99.90
11501;DHT22;5807;51.606;7.624;2022-10-16T01:24:22;13.40;99.90
11501;DHT22;5807;51.606;7.624;2022-10-16T01:27:12;13.20;99.90
11501;DHT22;5807;51.606;7.624;2022-10-16T01:29:52;13.20;99.90
11501;DHT22;5807;51.606;7.624;2022-10-16T01:32:31;13.10;99.90
11501;DHT22;5807;51.606;7.624;2022-10-16T01:35:03;13.20;99.90
11501;DHT22;5807;51.606;7.624;2022-10-16T01:37:35;13.20;99.90
11501;DHT22;5807;51.606;7.624;2022-10-16T01:40:09;13.20;99.90
11501;DHT22;5807;51.606;7.624;2022-10-16T01:42:42;13.10;99.90
11501;DHT22;5807;51.606;7.624;2022-10-16T01:45:17;13.00;99.90
11501;DHT22;5807;51.606;7.624;2022-10-16T01:47:48;13.00;99.90
11501;DHT22;5807;51.606;7.624;2022-10-16T01:50:18;13.00;99.90
11501;DHT22;5807;51.606;7.624;2022-10-16T01:52:48;13.00;99.90
11501;DHT22;5807;51.606;7.624;2022-10-16T01:55:19;13.00;99.90
11501;DHT22;5807;51.606;7.624;2022-10-16T01:57:49;13.10;99.90
11501;DHT22;5807;51.606;7.624;2022-10-16T02:02:50;13.00;99.90
11501;DHT22;5807;51.606;7.624;2022-10-16T02:05:23;12.90;99.90
11501;DHT22;5807;51.606;7.624;2022-10-16T02:12:50;13.00;99.90
11501;DHT22;5807;51.606;7.624;2022-10-16T02:15:20;13.00;99.90
11501;DHT22;5807;51.606;7.624;2022-10-16T02:22:45;13.00;99.90
11501;DHT22;5807;51.606;7.624;2022-10-16T02:25:17;13.00;99.90
11501;DHT22;5807;51.606;7.624;2022-10-16T02:27:53;13.10;99.90
11501;DHT22;5807;51.606;7.624;2022-10-16T02:30:27;13.00;99.90
11501;DHT22;5807;51.606;7.624;2022-10-16T02:32:56;13.00;99.90
11501;DHT22;5807;51.606;7.624;2022-10-16T02:37:56;13.10;99.90
11501;DHT22;5807;51.606;7.624;2022-10-16T03:00:15;13.30;99.90
11501;DHT22;5807;51.606;7.624;2022-10-16T03:07:37;13.30;99.90
11501;DHT22;5807;51.606;7.624;2022-10-16T03:17:31;13.50;99.90
11501;DHT22;5807;51.606;7.624;2022-10-16T03:39:38;13.80;99.90
11501;DHT22;5807;51.606;7.624;2022-10-16T03:46:59;13.80;99.90
11501;DHT22;5807;51.606;7.624;2022-10-16T03:56:52;13.70;99.90
11501;DHT22;5807;51.606;7.624;2022-10-16T03:59:19;13.60;99.90
11501;DHT22;5807;51.606;7.624;2022-10-16T04:01:46;13.60;99.90
11501;DHT22;5807;51.606;7.624;2022-10-16T04:16:31;13.30;99.90
11501;DHT22;5807;51.606;7.624;2022-10-16T04:21:25;13.30;99.90
11501;DHT22;5807;51.606;7.624;2022-10-16T04:23:52;13.30;99.90
11501;DHT22;5807;51.606;7.624;2022-10-16T05:03:15;12.30;99.90
11501;DHT22;5807;51.606;7.624;2022-10-16T05:10:37;12.20;99.90
11501;DHT22;5807;51.606;7.624;2022-10-16T05:30:18;12.10;99.90
11501;DHT22;5807;51.606;7.624;2022-10-16T05:40:10;12.30;99.90
11501;DHT22;5807;51.606;7.624;2022-10-16T05:59:56;12.30;99.90
11501;DHT22;5807;51.606;7.624;2022-10-16T06:04:54;12.30;99.90
11501;DHT22;5807;51.606;7.624;2022-10-16T06:09:50;12.40;99.90
11501;DHT22;5807;51.606;7.624;2022-10-16T06:14:46;12.50;99.90
11501;DHT22;5807;51.606;7.624;2022-10-16T06:17:14;12.60;99.90
11501;DHT22;5807;51.606;7.624;2022-10-16T06:19:41;12.70;99.90
11501;DHT22;5807;51.606;7.624;2022-10-16T06:54:15;13.20;99.90
11501;DHT22;5807;51.606;7.624;2022-10-16T06:56:43;13.30;99.90
11501;DHT22;5807;51.606;7.624;2022-10-16T06:59:10;13.50;99.90
11501;DHT22;5807;51.606;7.624;2022-10-16T07:04:05;13.60;99.90
11501;DHT22;5807;51.606;7.624;2022-10-16T07:06:33;14.70;99.90
11501;DHT22;5807;51.606;7.624;2022-10-16T07:09:23;13.80;99.90
11501;DHT22;5807;51.606;7.624;2022-10-16T07:11:50;13.80;99.90
11501;DHT22;5807;51.606;7.624;2022-10-16T07:14:18;13.90;99.90
11501;DHT22;5807;51.606;7.624;2022-10-16T07:16:46;14.00;99.90
11501;DHT22;5807;51.606;7.624;2022-10-16T07:19:14;14.10;99.90
11501;DHT22;5807;51.606;7.624;2022-10-16T07:21:43;14.20;99.90
11501;DHT22;5807;51.606;7.624;2022-10-16T07:24:12;14.30;99.90
11501;DHT22;5807;51.606;7.624;2022-10-16T07:26:40;14.30;99.90
11501;DHT22;5807;51.606;7.624;2022-10-16T07:32:32;14.60;99.90
11501;DHT22;5807;51.606;7.624;2022-10-16T07:34:59;15.00;99.90
11501;DHT22;5807;51.606;7.624;2022-10-16T07:37:26;14.70;99.90
11501;DHT22;5807;51.606;7.624;2022-10-16T07:39:53;15.20;99.90
11501;DHT22;5807;51.606;7.624;2022-10-16T07:42:19;14.60;99.90
11501;DHT22;5807;51.606;7.624;2022-10-16T07:44:46;14.90;99.90
11501;DHT22;5807;51.606;7.624;2022-10-16T07:47:13;15.20;99.90
11501;DHT22;5807;51.606;7.624;2022-10-16T07:49:41;14.80;99.90
11501;DHT22;5807;51.606;7.624;2022-10-16T07:52:08;14.40;99.90
11501;DHT22;5807;51.606;7.624;2022-10-16T07:54:35;14.40;99.90
11501;DHT22;5807;51.606;7.624;2022-10-16T07:57:02;16.60;99.90
11501;DHT22;5807;51.606;7.624;2022-10-16T07:59:29;14.60;99.90
11501;DHT22;5807;51.606;7.624;2022-10-16T08:01:55;14.80;99.90
11501;DHT22;5807;51.606;7.624;2022-10-16T08:04:22;16.50;99.90
11501;DHT22;5807;51.606;7.624;2022-10-16T08:06:51;15.40;99.90
11501;DHT22;5807;51.606;7.624;2022-10-16T08:09:20;14.80;99.90
11501;DHT22;5807;51.606;7.624;2022-10-16T08:14:17;14.80;99.90
11501;DHT22;5807;51.606;7.624;2022-10-16T08:16:44;15.00;99.90
11501;DHT22;5807;51.606;7.624;2022-10-16T08:19:10;15.30;99.90
11501;DHT22;5807;51.606;7.624;2022-10-16T08:30:00;16.20;99.90
11501;DHT22;5807;51.606;7.624;2022-10-16T08:32:27;16.30;99.90
11501;DHT22;5807;51.606;7.624;2022-10-16T08:34:55;16.50;99.90
11501;DHT22;5807;51.606;7.624;2022-10-16T08:37:24;16.60;99.90
11501;DHT22;5807;51.606;7.624;2022-10-16T08:39:51;16.90;99.90
11501;DHT22;5807;51.606;7.624;2022-10-16T08:42:34;16.80;99.90
11501;DHT22;5807;51.606;7.624;2022-10-16T08:45:21;17.00;99.90
11501;DHT22;5807;51.606;7.624;2022-10-16T08:48:14;17.30;99.90
11501;DHT22;5807;51.606;7.624;2022-10-16T08:50:41;17.40;99.90
11501;DHT22;5807;51.606;7.624;2022-10-16T08:53:13;17.40;99.90
11501;DHT22;5807;51.606;7.624;2022-10-16T08:55:43;17.90;99.90
11501;DHT22;5807;51.606;7.624;2022-10-16T08:58:18;17.90;99.90
11501;DHT22;5807;51.606;7.624;2022-10-16T09:00:47;17.50;99.90
11501;DHT22;5807;51.606;7.624;2022-10-16T09:03:23;17.70;99.90
11501;DHT22;5807;51.606;7.624;2022-10-16T09:06:01;17.90;99.90
11501;DHT22;5807;51.606;7.624;2022-10-16T09:08:42;17.80;99.90
11501;DHT22;5807;51.606;7.624;2022-10-16T09:11:16;17.80;99.90
11501;DHT22;5807;51.606;7.624;2022-10-16T09:13:50;17.90;99.90
11501;DHT22;5807;51.606;7.624;2022-10-16T09:16:22;18.00;99.90
11501;DHT22;5807;51.606;7.624;2022-10-16T09:18:54;18.60;99.90
11501;DHT22;5807;51.606;7.624;2022-10-16T09:21:39;18.20;99.90
11501;DHT22;5807;51.606;7.624;2022-10-16T09:24:12;18.30;99.90
11501;DHT22;5807;51.606;7.624;2022-10-16T09:26:39;18.40;99.90
11501;DHT22;5807;51.606;7.624;2022-10-16T09:29:09;18.50;99.90
11501;DHT22;5807;51.606;7.624;2022-10-16T09:31:36;18.30;99.90
11501;DHT22;5807;51.606;7.624;2022-10-16T09:34:04;18.30;99.90
11501;DHT22;5807;51.606;7.624;2022-10-16T09:36:36;18.30;99.90
11501;DHT22;5807;51.606;7.624;2022-10-16T09:39:07;18.40;99.90
11501;DHT22;5807;51.606;7.624;2022-10-16T09:41:35;18.50;99.90
11501;DHT22;5807;51.606;7.624;2022-10-16T09:44:04;18.60;99.90
11501;DHT22;5807;51.606;7.624;2022-10-16T09:46:36;18.40;99.90
11501;DHT22;5807;51.606;7.624;2022-10-16T09:49:05;18.40;99.90
11501;DHT22;5807;51.606;7.624;2022-10-16T09:51:33;18.50;99.90
11501;DHT22;5807;51.606;7.624;2022-10-16T09:54:13;18.50;99.90
11501;DHT22;5807;51.606;7.624;2022-10-16T09:56:40;18.50;99.90
11501;DHT22;5807;51.606;7.624;2022-10-16T09:59:12;18.60;99.90
11501;DHT22;5807;51.606;7.624;2022-10-16T10:01:42;19.00;99.90
11501;DHT22;5807;51.606;7.624;2022-10-16T10:04:11;19.20;99.90
11501;DHT22;5807;51.606;7.624;2022-10-16T10:06:43;19.30;99.90
11501;DHT22;5807;51.606;7.624;2022-10-16T10:09:17;19.30;99.90
11501;DHT22;5807;51.606;7.624;2022-10-16T10:11:53;19.20;99.90
11501;DHT22;5807;51.606;7.624;2022-10-16T10:14:28;19.30;99.90
11501;DHT22;5807;51.606;7.624;2022-10-16T10:17:12;19.40;99.90
11501;DHT22;5807;51.606;7.624;2022-10-16T10:19:41;19.70;99.90
11501;DHT22;5807;51.606;7.624;2022-10-16T10:22:39;19.70;99.90
11501;DHT22;5807;51.606;7.624;2022-10-16T10:25:37;19.60;99.90
11501;DHT22;5807;51.606;7.624;2022-10-16T10:31:06;18.90;99.90
11501;DHT22;5807;51.606;7.624;2022-10-16T10:33:41;18.90;99.90
11501;DHT22;5807;51.606;7.624;2022-10-16T10:36:22;19.10;99.90
11501;DHT22;5807;51.606;7.624;2022-10-16T10:38:56;19.10;99.90
11501;DHT22;5807;51.606;7.624;2022-10-16T10:41:43;19.50;99.90
11501;DHT22;5807;51.606;7.624;2022-10-16T10:44:21;19.90;99.90
11501;DHT22;5807;51.606;7.624;2022-10-16T10:46:51;20.10;99.90
11501;DHT22;5807;51.606;7.624;2022-10-16T10:49:40;19.70;99.90
11501;DHT22;5807;51.606;7.624;2022-10-16T10:52:27;20.30;99.90
11501;DHT22;5807;51.606;7.624;2022-10-16T10:55:06;20.00;99.90
11501;DHT22;5807;51.606;7.624;2022-10-16T10:57:41;20.00;99.90
11501;DHT22;5807;51.606;7.624;2022-10-16T11:00:17;20.00;99.90
11501;DHT22;5807;51.606;7.624;2022-10-16T11:02:50;20.10;99.90
11501;DHT22;5807;51.606;7.624;2022-10-16T11:05:33;20.20;99.90
11501;DHT22;5807;51.606;7.624;2022-10-16T11:08:09;20.10;99.90
11501;DHT22;5807;51.606;7.624;2022-10-16T11:10:44;20.40;99.90
11501;DHT22;5807;51.606;7.624;2022-10-16T11:13:23;20.40;99.90
11501;DHT22;5807;51.606;7.624;2022-10-16T11:15:55;20.30;99.90
11501;DHT22;5807;51.606;7.624;2022-10-16T11:18:26;20.60;99.90
11501;DHT22;5807;51.606;7.624;2022-10-16T11:21:01;20.80;99.90
11501;DHT22;5807;51.606;7.624;2022-10-16T11:23:33;20.60;99.90
11501;DHT22;5807;51.606;7.624;2022-10-16T11:26:05;20.30;99.90
11501;DHT22;5807;51.606;7.624;2022-10-16T11:28:35;20.30;99.90
11501;DHT22;5807;51.606;7.624;2022-10-16T11:31:08;20.30;99.90
11501;DHT22;5807;51.606;7.624;2022-10-16T11:33:39;19.90;99.90
11501;DHT22;5807;51.606;7.624;2022-10-16T11:36:14;20.60;99.90
11501;DHT22;5807;51.606;7.624;2022-10-16T11:38:49;20.90;99.90
11501;DHT22;5807;51.606;7.624;2022-10-16T11:41:24;20.50;99.90
11501;DHT22;5807;51.606;7.624;2022-10-16T11:44:05;20.70;99.90
11501;DHT22;5807;51.606;7.624;2022-10-16T11:46:34;20.90;99.90
11501;DHT22;5807;51.606;7.624;2022-10-16T11:49:10;20.90;99.90
11501;DHT22;5807;51.606;7.624;2022-10-16T11:51:43;21.10;99.90
11501;DHT22;5807;51.606;7.624;2022-10-16T11:54:18;21.20;99.90
11501;DHT22;5807;51.606;7.624;2022-10-16T11:56:50;21.20;99.90
11501;DHT22;5807;51.606;7.624;2022-10-16T11:59:25;21.40;99.90
11501;DHT22;5807;51.606;7.624;2022-10-16T12:01:58;21.40;99.90
11501;DHT22;5807;51.606;7.624;2022-10-16T12:04:31;21.30;99.90
11501;DHT22;5807;51.606;7.624;2022-10-16T12:07:05;21.50;99.90
11501;DHT22;5807;51.606;7.624;2022-10-16T12:09:37;21.60;99.90
11501;DHT22;5807;51.606;7.624;2022-10-16T12:12:04;21.60;99.90
11501;DHT22;5807;51.606;7.624;2022-10-16T12:14:37;21.60;99.70
11501;DHT22;5807;51.606;7.624;2022-10-16T12:17:24;21.70;99.90
11501;DHT22;5807;51.606;7.624;2022-10-16T12:19:58;22.00;99.90
11501;DHT22;5807;51.606;7.624;2022-10-16T12:22:28;22.30;99.90
11501;DHT22;5807;51.606;7.624;2022-10-16T12:24:55;22.50;98.30
11501;DHT22;5807;51.606;7.624;2022-10-16T12:27:25;22.60;99.40
11501;DHT22;5807;51.606;7.624;2022-10-16T12:29:56;22.50;97.10
11501;DHT22;5807;51.606;7.624;2022-10-16T12:34:54;22.20;98.30
11501;DHT22;5807;51.606;7.624;2022-10-16T12:37:23;22.40;99.50
11501;DHT22;5807;51.606;7.624;2022-10-16T12:39:54;22.10;98.10
11501;DHT22;5807;51.606;7.624;2022-10-16T12:42:32;22.20;98.00
11501;DHT22;5807;51.606;7.624;2022-10-16T12:45:00;21.80;97.00
11501;DHT22;5807;51.606;7.624;2022-10-16T12:47:38;21.80;98.20
11501;DHT22;5807;51.606;7.624;2022-10-16T12:50:37;21.60;99.00
11501;DHT22;5807;51.606;7.624;2022-10-16T12:53:18;21.10;98.40
11501;DHT22;5807;51.606;7.624;2022-10-16T12:55:56;20.90;99.90
11501;DHT22;5807;51.606;7.624;2022-10-16T12:58:46;21.00;99.00
11501;DHT22;5807;51.606;7.624;2022-10-16T13:01:26;21.00;99.30
11501;DHT22;5807;51.606;7.624;2022-10-16T13:04:27;20.80;98.90
11501;DHT22;5807;51.606;7.624;2022-10-16T13:07:09;20.60;98.90
11501;DHT22;5807;51.606;7.624;2022-10-16T13:09:51;20.20;99.30
11501;DHT22;5807;51.606;7.624;2022-10-16T13:12:37;19.90;98.70
11501;DHT22;5807;51.606;7.624;2022-10-16T13:15:29;19.90;99.00
11501;DHT22;5807;51.606;7.624;2022-10-16T13:18:06;19.70;99.80
11501;DHT22;5807;51.606;7.624;2022-10-16T13:20:53;19.40;99.90
11501;DHT22;5807;51.606;7.624;2022-10-16T13:23:26;19.40;99.90
11501;DHT22;5807;51.606;7.624;2022-10-16T13:26:05;19.30;99.90
11501;DHT22;5807;51.606;7.624;2022-10-16T13:28:37;19.80;99.90
11501;DHT22;5807;51.606;7.624;2022-10-16T13:31:05;19.80;99.90
11501;DHT22;5807;51.606;7.624;2022-10-16T13:33:33;20.40;99.90
11501;DHT22;5807;51.606;7.624;2022-10-16T13:36:02;20.60;99.90
11501;DHT22;5807;51.606;7.624;2022-10-16T13:38:32;20.60;99.50
11501;DHT22;5807;51.606;7.624;2022-10-16T13:41:00;20.50;99.50
11501;DHT22;5807;51.606;7.624;2022-10-16T13:43:31;20.50;99.90
11501;DHT22;5807;51.606;7.624;2022-10-16T13:46:03;20.70;99.90
11501;DHT22;5807;51.606;7.624;2022-10-16T13:48:31;20.80;99.90
11501;DHT22;5807;51.606;7.624;2022-10-16T13:51:04;21.00;99.40
11501;DHT22;5807;51.606;7.624;2022-10-16T13:53:32;21.20;99.70
11501;DHT22;5807;51.606;7.624;2022-10-16T13:56:00;21.10;99.40
11501;DHT22;5807;51.606;7.624;2022-10-16T13:58:28;20.80;99.90
11501;DHT22;5807;51.606;7.624;2022-10-16T14:00:57;21.00;99.70
11501;DHT22;5807;51.606;7.624;2022-10-16T14:03:26;20.70;99.20
11501;DHT22;5807;51.606;7.624;2022-10-16T14:05:56;20.40;98.00
11501;DHT22;5807;51.606;7.624;2022-10-16T14:08:25;20.40;99.70
11501;DHT22;5807;51.606;7.624;2022-10-16T14:10:54;20.40;98.90
11501;DHT22;5807;51.606;7.624;2022-10-16T14:13:27;20.30;99.60
11501;DHT22;5807;51.606;7.624;2022-10-16T14:15:55;20.10;99.90
11501;DHT22;5807;51.606;7.624;2022-10-16T14:18:26;19.90;99.70
11501;DHT22;5807;51.606;7.624;2022-10-16T14:20:54;19.70;99.90
11501;DHT22;5807;51.606;7.624;2022-10-16T14:23:23;19.50;99.90
11501;DHT22;5807;51.606;7.624;2022-10-16T14:26:06;19.30;99.90
11501;DHT22;5807;51.606;7.624;2022-10-16T14:28:33;19.30;99.90
11501;DHT22;5807;51.606;7.624;2022-10-16T14:31:01;19.40;99.90
11501;DHT22;5807;51.606;7.624;2022-10-16T14:33:33;19.50;99.90
11501;DHT22;5807;51.606;7.624;2022-10-16T14:36:03;19.80;99.90
11501;DHT22;5807;51.606;7.624;2022-10-16T14:38:31;19.90;99.90
11501;DHT22;5807;51.606;7.624;2022-10-16T14:40:59;20.00;99.90
11501;DHT22;5807;51.606;7.624;2022-10-16T14:43:32;20.00;99.90
11501;DHT22;5807;51.606;7.624;2022-10-16T14:46:00;20.10;99.90
11501;DHT22;5807;51.606;7.624;2022-10-16T14:48:28;19.90;99.90
11501;DHT22;5807;51.606;7.624;2022-10-16T14:50:56;19.60;99.90
11501;DHT22;5807;51.606;7.624;2022-10-16T14:53:23;19.40;99.90
11501;DHT22;5807;51.606;7.624;2022-10-16T14:55:50;19.20;99.90
11501;DHT22;5807;51.606;7.624;2022-10-16T14:58:20;19.00;99.90
11501;DHT22;5807;51.606;7.624;2022-10-16T15:00:48;19.40;99.90
11501;DHT22;5807;51.606;7.624;2022-10-16T15:03:15;18.60;99.90
11501;DHT22;5807;51.606;7.624;2022-10-16T15:05:42;18.50;99.90
11501;DHT22;5807;51.606;7.624;2022-10-16T15:08:10;18.40;99.90
11501;DHT22;5807;51.606;7.624;2022-10-16T15:10:39;18.40;99.90
11501;DHT22;5807;51.606;7.624;2022-10-16T15:13:08;18.50;99.90
11501;DHT22;5807;51.606;7.624;2022-10-16T15:15:37;18.60;99.90
11501;DHT22;5807;51.606;7.624;2022-10-16T15:18:05;18.70;99.90
11501;DHT22;5807;51.606;7.624;2022-10-16T15:20:34;18.90;99.90
11501;DHT22;5807;51.606;7.624;2022-10-16T15:23:02;18.40;99.90
11501;DHT22;5807;51.606;7.624;2022-10-16T15:25:36;18.80;99.90
11501;DHT22;5807;51.606;7.624;2022-10-16T15:28:05;18.60;99.90
11501;DHT22;5807;51.606;7.624;2022-10-16T15:30:32;18.70;99.90
11501;DHT22;5807;51.606;7.624;2022-10-16T15:36:04;18.10;99.90
11501;DHT22;5807;51.606;7.624;2022-10-16T15:38:31;18.00;99.90
11501;DHT22;5807;51.606;7.624;2022-10-16T15:41:23;17.90;99.90
11501;DHT22;5807;51.606;7.624;2022-10-16T15:43:50;17.70;99.90
11501;DHT22;5807;51.606;7.624;2022-10-16T15:46:19;17.60;99.90
11501;DHT22;5807;51.606;7.624;2022-10-16T15:48:47;17.50;99.90
11501;DHT22;5807;51.606;7.624;2022-10-16T15:51:15;17.40;99.90
11501;DHT22;5807;51.606;7.624;2022-10-16T15:53:42;16.90;99.90
11501;DHT22;5807;51.606;7.624;2022-10-16T15:56:12;17.80;99.90
11501;DHT22;5807;51.606;7.624;2022-10-16T15:58:40;17.40;99.90
11501;DHT22;5807;51.606;7.624;2022-10-16T16:01:07;17.30;99.90
11501;DHT22;5807;51.606;7.624;2022-10-16T16:03:35;17.30;99.90
11501;DHT22;5807;51.606;7.624;2022-10-16T16:06:06;17.30;99.90
11501;DHT22;5807;51.606;7.624;2022-10-16T16:08:34;17.30;99.90
11501;DHT22;5807;51.606;7.624;2022-10-16T16:11:02;17.20;99.90
11501;DHT22;5807;51.606;7.624;2022-10-16T16:13:30;17.20;99.90
11501;DHT22;5807;51.606;7.624;2022-10-16T16:15:59;17.10;99.90
11501;DHT22;5807;51.606;7.624;2022-10-16T16:18:26;17.00;99.90
11501;DHT22;5807;51.606;7.624;2022-10-16T16:20:54;17.20;99.90
11501;DHT22;5807;51.606;7.624;2022-10-16T16:23:21;16.90;99.90
11501;DHT22;5807;51.606;7.624;2022-10-16T16:26:03;16.90;99.90
11501;DHT22;5807;51.606;7.624;2022-10-16T16:28:30;16.90;99.90
11501;DHT22;5807;51.606;7.624;2022-10-16T16:30:56;16.80;99.90
11501;DHT22;5807;51.606;7.624;2022-10-16T16:33:25;16.80;99.90
11501;DHT22;5807;51.606;7.624;2022-10-16T16:35:56;16.70;99.90
11501;DHT22;5807;51.606;7.624;2022-10-16T16:38:23;16.50;99.90
11501;DHT22;5807;51.606;7.624;2022-10-16T16:40:50;17.00;99.90
11501;DHT22;5807;51.606;7.624;2022-10-16T16:43:17;16.90;99.90
11501;DHT22;5807;51.606;7.624;2022-10-16T16:45:44;16.40;99.90
11501;DHT22;5807;51.606;7.624;2022-10-16T16:48:11;16.40;99.90
11501;DHT22;5807;51.606;7.624;2022-10-16T16:50:39;16.40;99.90
11501;DHT22;5807;51.606;7.624;2022-10-16T16:53:06;17.10;99.90
11501;DHT22;5807;51.606;7.624;2022-10-16T16:55:33;16.30;99.90
11501;DHT22;5807;51.606;7.624;2022-10-16T16:58:00;17.30;99.90
11501;DHT22;5807;51.606;7.624;2022-10-16T17:00:28;16.30;99.90
11501;DHT22;5807;51.606;7.624;2022-10-16T17:02:56;16.80;99.90
11501;DHT22;5807;51.606;7.624;2022-10-16T17:05:23;16.40;99.90
11501;DHT22;5807;51.606;7.624;2022-10-16T17:07:51;16.40;99.90
11501;DHT22;5807;51.606;7.624;2022-10-16T17:10:18;16.40;99.90
11501;DHT22;5807;51.606;7.624;2022-10-16T17:12:44;16.30;99.90
11501;DHT22;5807;51.606;7.624;2022-10-16T17:15:11;16.30;99.90
11501;DHT22;5807;51.606;7.624;2022-10-16T17:17:38;16.00;99.90
11501;DHT22;5807;51.606;7.624;2022-10-16T17:20:06;16.10;99.90
11501;DHT22;5807;51.606;7.624;2022-10-16T17:22:34;16.10;99.90
11501;DHT22;5807;51.606;7.624;2022-10-16T17:25:02;16.10;99.90
11501;DHT22;5807;51.606;7.624;2022-10-16T17:27:31;16.00;99.90
11501;DHT22;5807;51.606;7.624;2022-10-16T17:29:58;15.80;99.90
11501;DHT22;5807;51.606;7.624;2022-10-16T17:32:25;15.90;99.90
11501;DHT22;5807;51.606;7.624;2022-10-16T17:34:52;15.80;99.90
11501;DHT22;5807;51.606;7.624;2022-10-16T17:37:19;15.70;99.90
11501;DHT22;5807;51.606;7.624;2022-10-16T17:39:46;15.70;99.90
11501;DHT22;5807;51.606;7.624;2022-10-16T17:42:17;15.80;99.90
11501;DHT22;5807;51.606;7.624;2022-10-16T17:44:44;15.80;99.90
11501;DHT22;5807;51.606;7.624;2022-10-16T17:47:10;15.70;99.90
11501;DHT22;5807;51.606;7.624;2022-10-16T17:49:37;15.70;99.90
11501;DHT22;5807;51.606;7.624;2022-10-16T17:52:04;16.10;99.90
11501;DHT22;5807;51.606;7.624;2022-10-16T17:54:31;15.80;99.90
11501;DHT22;5807;51.606;7.624;2022-10-16T17:56:58;15.80;99.90
11501;DHT22;5807;51.606;7.624;2022-10-16T17:59:26;15.80;99.90
11501;DHT22;5807;51.606;7.624;2022-10-16T18:01:53;15.40;99.90
11501;DHT22;5807;51.606;7.624;2022-10-16T18:04:20;15.80;99.90
11501;DHT22;5807;51.606;7.624;2022-10-16T18:06:50;16.10;99.90
11501;DHT22;5807;51.606;7.624;2022-10-16T18:09:18;15.70;99.90
11501;DHT22;5807;51.606;7.624;2022-10-16T18:11:45;15.60;99.90
11501;DHT22;5807;51.606;7.624;2022-10-16T18:14:15;15.80;99.90
11501;DHT22;5807;51.606;7.624;2022-10-16T18:16:43;15.60;99.90
11501;DHT22;5807;51.606;7.624;2022-10-16T18:19:11;14.00;99.90
11501;DHT22;5807;51.606;7.624;2022-10-16T18:21:38;15.70;99.90
11501;DHT22;5807;51.606;7.624;2022-10-16T18:24:06;15.70;99.90
11501;DHT22;5807;51.606;7.624;2022-10-16T18:26:32;15.70;99.90
11501;DHT22;5807;51.606;7.624;2022-10-16T18:28:59;15.80;99.90
11501;DHT22;5807;51.606;7.624;2022-10-16T18:36:25;15.80;99.90
11501;DHT22;5807;51.606;7.624;2022-10-16T18:38:54;16.20;99.90
11501;DHT22;5807;51.606;7.624;2022-10-16T18:41:22;15.40;99.90
11501;DHT22;5807;51.606;7.624;2022-10-16T18:43:48;15.70;99.90
11501;DHT22;5807;51.606;7.624;2022-10-16T18:46:18;15.70;99.90
11501;DHT22;5807;51.606;7.624;2022-10-16T18:48:45;15.70;99.90
11501;DHT22;5807;51.606;7.624;2022-10-16T18:51:16;15.60;99.90
11501;DHT22;5807;51.606;7.624;2022-10-16T18:53:45;16.00;99.90
11501;DHT22;5807;51.606;7.624;2022-10-16T18:56:13;15.50;99.90
11501;DHT22;5807;51.606;7.624;2022-10-16T18:58:42;15.50;99.90
11501;DHT22;5807;51.606;7.624;2022-10-16T19:01:11;15.50;99.90
11501;DHT22;5807;51.606;7.624;2022-10-16T19:03:39;16.00;99.90
11501;DHT22;5807;51.606;7.624;2022-10-16T19:06:08;15.10;99.90
11501;DHT22;5807;51.606;7.624;2022-10-16T19:08:37;15.50;99.90
11501;DHT22;5807;51.606;7.624;2022-10-16T19:11:06;15.50;99.90
11501;DHT22;5807;51.606;7.624;2022-10-16T19:13:34;15.50;99.90
11501;DHT22;5807;51.606;7.624;2022-10-16T19:16:02;15.50;99.90
11501;DHT22;5807;51.606;7.624;2022-10-16T19:18:29;15.40;99.90
11501;DHT22;5807;51.606;7.624;2022-10-16T19:21:02;15.50;99.90
11501;DHT22;5807;51.606;7.624;2022-10-16T19:23:29;15.40;99.90
11501;DHT22;5807;51.606;7.624;2022-10-16T19:26:01;15.40;99.90
11501;DHT22;5807;51.606;7.624;2022-10-16T19:28:29;15.70;99.90
11501;DHT22;5807;51.606;7.624;2022-10-16T19:31:00;15.30;99.90
11501;DHT22;5807;51.606;7.624;2022-10-16T19:36:05;15.30;99.90
11501;DHT22;5807;51.606;7.624;2022-10-16T19:38:31;16.80;99.90
11501;DHT22;5807;51.606;7.624;2022-10-16T19:46:02;15.30;99.90
11501;DHT22;5807;51.606;7.624;2022-10-16T19:50:56;15.10;99.90
11501;DHT22;5807;51.606;7.624;2022-10-16T19:58:22;14.80;99.90
11501;DHT22;5807;51.606;7.624;2022-10-16T20:00:49;14.70;99.90
11501;DHT22;5807;51.606;7.624;2022-10-16T20:03:17;14.50;99.90
11501;DHT22;5807;51.606;7.624;2022-10-16T20:05:51;14.60;99.90
11501;DHT22;5807;51.606;7.624;2022-10-16T20:08:19;14.50;99.90
11501;DHT22;5807;51.606;7.624;2022-10-16T20:26:37;14.60;99.90
11501;DHT22;5807;51.606;7.624;2022-10-16T20:32:21;14.30;99.90
11501;DHT22;5807;51.606;7.624;2022-10-16T21:25:47;14.00;99.90
11501;DHT22;5807;51.606;7.624;2022-10-16T21:29:09;14.00;99.90
11501;DHT22;5807;51.606;7.624;2022-10-16T21:34:49;14.00;99.90
11501;DHT22;5807;51.606;7.624;2022-10-16T21:41:03;13.90;99.90
11501;DHT22;5807;51.606;7.624;2022-10-16T21:47:29;13.90;99.90
11501;DHT22;5807;51.606;7.624;2022-10-16T21:50:48;13.80;99.90
11501;DHT22;5807;51.606;7.624;2022-10-16T21:54:16;13.80;99.90
11501;DHT22;5807;51.606;7.624;2022-10-16T22:13:24;13.70;99.90
11501;DHT22;5807;51.606;7.624;2022-10-16T22:21:16;13.60;99.90
11501;DHT22;5807;51.606;7.624;2022-10-16T22:29:28;13.60;99.90
11501;DHT22;5807;51.606;7.624;2022-10-16T22:40:03;13.50;99.90